Airport View

Enter AWOS ICAO identifier for current METAR.

ex. KFNL

KBVS 212335Z AUTO VRB04KT 10SM CLR 23/13 A3004 RMK A01

21 Sep 2019 23:46

Frequency: 121.125

Phone: 360-757-7767

Other Area AWOS: KNUW - KBLI - KAWO - KORS

TAF KNUW 2115/2215 VRB06KT 9999 SCT020 BKN050 QNH3000INS TEMPO 2115/2119 15008KT 8000 BR BKN020 BKN050 FM220400 16012KT 9999 BKN030 OVC050 QNH2988INS TEMPO 2204/2210 14018G28KT 9000 -SHRA BKN025 OVC050 FM221000 16012KT 8000 -SHRA BR VCTS SCT020 BKN030 OVC050CB QNH2982INS TEMPO 2110/2115 18015G25KT 4800 RA BR BKN020 OVC030 T20/2123Z T12/2214Z FS30149